Huvudsida
METAR-TAF:

METAR-TAF

Flygplatser :

Bornholms flygplats

Rønne, Danmark

latitud: 55-04N, longitud: 014-45E, höjd: 16 m

Aktuellt väderrapport

Denna rapport gjordes för 43 minuter sedan, klockan 03:20 UTC
Vind 14 kt från syd/sydväst
Temperatur 6°C
Fuktighet 87%
Tryck 1006 hPa
Sikt 10 km eller mer

METAR: EKRN 190320Z AUTO 21014KT 9999 BKN023/// BKN049/// BKN061/// 06/04 Q1006

Tid: 05:03 (04:03 UTC)

Väderprognos

Denna rapport gjordes för 10 timmar och 38 minuter sedan, klockan 17:25 UTC
Prognos gäller från 18 kl. 18 UTC till 18 kl. 23 UTC
Vind 20 kt från väst/sydväst
Sikt 10 km eller mer
Brutna moln på en höjd av 2500 ft
Temporärt
från 18 kl. 18 UTC till 18 kl. 23 UTC
Vind 20 kt från väst/sydväst i byarna ända upp till 35 kt
Spridda moln på en höjd av 2000 ft, Cumulonimbus.
regnskurar

TAF: EKRN 181725Z 1818/1823 25020KT 9999 BKN025 TEMPO 1818/1823 25020G35KT SHRA SCT020CB

Aktuella väderrapporter och prognoser från 4000 flygplatser (METAR- och TAF-rapporter).

De tillgängliga stationerna syns som gula och röda prickar på kartan.

För musen över prickarna för att se namnen på stationerna.

Klicka sedan för att få väderrapporter och prognoser.

För att ändra kartan: Klicka på de gröna knapparna med ett svart kors på för att zooma in; den gröna knappen med ett streck på för att zooma ut; eller på de gröna pilarna för angränsande kartor.


METAR-TAF: